Huntley, MT (59037)

6:42 PM MDT on June 29, 2015 (GMT -0600)
South of Castle Rock Park | | Change Station
CLOSE
Current Station
Personal Weather Station
Location: Billings, MT
Elevation: 3297 ft
Nearby Weather Stations

Elev 3297 ft 45.82 °N, 108.50 °W | Updated 17 seconds ago

Partly Cloudy
Partly Cloudy
103.9 °F
Feels Like 101 °F
N
0.9
Wind Variable Wind from SSE
Gusts 3.8 mph

Today
High -- | Low -- °F
--% Chance of Precip.
Yesterday
High -- | Low -- °F
Precip. -- in
5:25 AM 9:07 PM
Waxing Gibbous, 95% visible
Pressure 29.88 in
Visibility 10.0 miles
Clouds Scattered Clouds 15000 ft
Scattered Clouds 24000 ft
Heat Index 101 °F
Dew Point 50 °F
Humidity 17%
Rainfall in
Snow Depth Not available.
UV 3 out of 12
Pollen 6.10 out of 12
Air Quality Not available.
Flu Activity Sporadic
METAR KBIL 292353Z 14008KT 100V170 10SM SCT150 SCT240 36/03 A3001 RMK AO2 SLP118 CB DSNT SW-NW T03610028 10367 20306 56022

More Conditions Fewer Conditions

Pressure 29.88 in
Visibility 10.0 miles
Clouds Scattered Clouds 15000 ft
Scattered Clouds 24000 ft
Heat Index 101 °F
Dew Point 50 °F
Humidity 17%
Rainfall in
Snow Depth Not available.
UV 3 out of 12
Pollen 6.10 out of 12
Air Quality Not available.
Flu Activity Sporadic
METAR KBIL 292353Z 14008KT 100V170 10SM SCT150 SCT240 36/03 A3001 RMK AO2 SLP118 CB DSNT SW-NW T03610028 10367 20306 56022

More Conditions Fewer Conditions

10-Day Weather Forecast

×

Almanac

Astronomy

Jun. 29, 2015 Rise Set
Actual Time
Civil Twilight
Nautical Twilight
Astronomical Twilight
Moon
Length of Visible Light
Length of Day
Tomorrow will be .
, % of the Moon is Illuminated

Today's Extremes

State Highs State Lows

Community

WunderPhotos

Upload Photos

1,833,902 photos uploaded!

WunderBlogs® & News

Nearby

Air Quality

  Air Quality AQ Index Pollutant
Not available.

Snow Depth

Station Depth Elevation

Earthquake Activity

City Distance Mag. Time & Date
Minimum magnitude displayed is 2.5.

Coastal Water Temperatures

Place Temperature

Stations

Nearby Weather Stations

Station Location Temp. Windchill Dew Point Humidity Wind Precip. Elev Updated Type